首页
METAR-TAF:

METAR-TAF

机场 :

奥斯陆加勒穆恩机场

奥斯陆, 挪威

纬度: 60-12N, 经度: 011-05E, 海拔: 208米

当前天气观测

该预报发布于23分钟前的16:20 UTC
风速6节,风向北转东北
温度 0°C
湿度 100%
气压 1025 hPa
能见度10公里或以上
阴天层高于400英尺

METAR: ENGM 201620Z 02006KT 9999 OVC004 00/M00 Q1025 TEMPO 4000 -RA BR BKN006

时间: 17:43 (16:43 UTC)

预报

预报有效从20日的 12点(UTC)到 21日的 12点(UTC)
风速5节,风向
能见度10公里或以上
多云层高于800英尺
短暂存在
从 20日的 12点(UTC)到 20日的 14点(UTC)
散云层高于800英尺
多云层高于1600英尺
短暂存在
从 20日的 14点(UTC)到 21日的 12点(UTC)
能見度: 2000
阴天层高于400英尺
毛毛雨, 雨, 轻雾

TAF: ENGM 2012/2112 36005KT 9999 BKN008 TEMPO 2012/2014 SCT008 BKN016 TEMPO 2014/2112 2000 DZRA BR OVC004

超过4000个机场的气象观测和天气预报(METAR&TAF报告)。

可查询的气象台以黄色和红色小点在地图上表示。

将鼠标移到小点上方,可查看气象台名称。

然后点击查看天气观测和预报。

如需切换地图:点击带黑十字的绿色按钮放大地图;点击带横线的绿色按钮缩小地图;或者点击绿色箭头查看邻近地区的地图。


METAR-TAF: